Chicago, IL (60290)

10:59 AM CST on February 25, 2017 (GMT -0600)
George Street | | Change Station

Elev 656 ft 41.94 °N, 87.88 °W | Updated 3 minutes ago

Light Snow
Light Snow
24.1 °F
Feels Like 19 °F
N
3.7
Wind Variable Wind from West
Gusts 9.9 mph

Today
High -- | Low -- °F
--% Chance of Precip.
Yesterday
High -- | Low -- °F
Precip. -- in
Pressure 29.86 in
Visibility 7.0 miles
Clouds Mostly Cloudy 2700 ft
Overcast 3300 ft
Windchill 19 °F
Dew Point 17 °F
Humidity 73%
Rainfall 0.00 in
Snow Depth Not available.
6:32 AM 5:37 PM
Waning Crescent, 1% visible
METAR KORD 251651Z 29012KT 7SM -SN BKN027 OVC033 M04/M10 A2983 RMK AO2 SLP110 P0000 T10391100
Pressure 29.86 in
Visibility 7.0 miles
Clouds Mostly Cloudy 2700 ft
Overcast 3300 ft
Windchill 19 °F
Dew Point 17 °F
Humidity 73%
Rainfall 0.00 in
Snow Depth Not available.
6:32 AM 5:37 PM
Waning Crescent, 1% visible
METAR KORD 251651Z 29012KT 7SM -SN BKN027 OVC033 M04/M10 A2983 RMK AO2 SLP110 P0000 T10391100

Get Your Daily Forecast Email!

Thanks for signing up!

Be on the lookout for a verification email in your inbox.

You'll start receiving the daily forecast at 8 AM.

×

10-Day Weather Forecast

Almanac

Astronomy

Feb. 25, 2017 Rise Set
Actual Time
Civil Twilight
Nautical Twilight
Astronomical Twilight
Moon
Length of Visible Light
Length of Day
Tomorrow will be .
, % of the Moon is Illuminated

Today's Extremes

State Highs State Lows

Community

WunderPhotos

Upload Photos

1,962,540 photos uploaded!

WunderBlog® & News

Nearby

Air Quality

  Air Quality AQ Index Pollutant
Not available.

Snow Depth

Station Depth Elevation

Earthquake Activity

City Distance Mag. Time & Date
Minimum magnitude displayed is 2.5.

Coastal Water Temperatures

Place Temperature

Stations

Nearby Weather Stations

Station Location Temp. Windchill Dew Point Humidity Wind Precip. Elev Updated Type
                   

Watches & Warnings

There are currently no watches in effect.